createdAt,value
2023-03-24T00:00:38.447Z,13.75
2023-03-24T00:01:36.968Z,13.75
2023-03-24T00:02:37.963Z,13.74
2023-03-24T00:03:36.767Z,13.74
2023-03-24T00:04:37.250Z,13.74
2023-03-24T00:05:37.073Z,13.75
2023-03-24T00:06:36.753Z,13.77
2023-03-24T00:07:39.908Z,13.80
2023-03-24T00:09:09.401Z,13.80
2023-03-24T00:09:42.423Z,13.80
2023-03-24T00:10:39.097Z,13.80
2023-03-24T00:11:37.663Z,13.78
2023-03-24T00:12:38.076Z,13.77
2023-03-24T00:13:38.391Z,13.75
2023-03-24T00:14:39.164Z,13.74
2023-03-24T00:15:38.649Z,13.72
2023-03-24T00:16:39.672Z,13.72
2023-03-24T00:17:39.099Z,13.73
2023-03-24T00:18:40.695Z,13.74
2023-03-24T00:19:39.852Z,13.73
2023-03-24T00:20:38.861Z,13.74
2023-03-24T00:21:40.408Z,13.73
2023-03-24T00:22:39.285Z,13.73
2023-03-24T00:23:38.540Z,13.73
2023-03-24T00:24:39.601Z,13.73
2023-03-24T00:25:38.858Z,13.75
2023-03-24T00:26:40.611Z,13.75
2023-03-24T00:27:39.666Z,13.77
2023-03-24T00:28:39.859Z,13.77
2023-03-24T00:29:40.360Z,13.77
2023-03-24T00:30:39.370Z,13.75
2023-03-24T00:31:40.121Z,13.74
2023-03-24T00:32:39.784Z,13.76
2023-03-24T00:33:40.059Z,13.76
2023-03-24T00:34:39.675Z,13.76
2023-03-24T00:35:39.839Z,13.75
2023-03-24T00:36:40.774Z,13.75
2023-03-24T00:37:39.724Z,13.75
2023-03-24T00:38:39.819Z,13.75
2023-03-24T00:39:39.589Z,13.75
2023-03-24T00:40:39.459Z,13.75
2023-03-24T00:41:39.243Z,13.75
2023-03-24T00:42:39.235Z,13.75
2023-03-24T00:43:39.706Z,13.75
2023-03-24T00:44:39.815Z,13.74
2023-03-24T00:45:41.304Z,13.75
2023-03-24T00:46:40.032Z,13.75
2023-03-24T00:47:39.027Z,13.75
2023-03-24T00:48:38.713Z,13.75
2023-03-24T00:49:39.541Z,13.73
2023-03-24T00:50:40.522Z,13.73
2023-03-24T00:51:40.821Z,13.71
2023-03-24T00:52:40.936Z,13.71
2023-03-24T00:53:40.084Z,13.70
2023-03-24T00:54:39.124Z,13.72
2023-03-24T00:55:38.918Z,13.72
2023-03-24T00:56:39.942Z,13.73
2023-03-24T00:57:38.779Z,13.75
2023-03-24T00:58:39.697Z,13.74
2023-03-24T00:59:39.735Z,13.74
2023-03-24T01:01:45.454Z,13.74
2023-03-24T01:02:39.577Z,13.73
2023-03-24T01:03:39.855Z,13.73
2023-03-24T01:04:39.717Z,13.72
2023-03-24T01:05:40.079Z,13.73
2023-03-24T01:06:38.974Z,13.72
2023-03-24T01:07:39.204Z,13.72
2023-03-24T01:08:38.890Z,13.72
2023-03-24T01:09:40.451Z,13.71
2023-03-24T01:10:39.640Z,13.69
2023-03-24T01:11:39.911Z,13.67
2023-03-24T01:12:38.627Z,13.69
2023-03-24T01:13:39.042Z,13.69
2023-03-24T01:14:39.585Z,13.69
2023-03-24T01:15:38.854Z,13.70
2023-03-24T01:16:38.928Z,13.70
2023-03-24T01:17:39.108Z,13.69
2023-03-24T01:18:38.230Z,13.69
2023-03-24T01:19:39.403Z,13.68
2023-03-24T01:20:38.502Z,13.66
2023-03-24T01:21:39.038Z,13.65
2023-03-24T01:22:38.018Z,13.65
2023-03-24T01:23:37.860Z,13.65
2023-03-24T01:24:39.203Z,13.65
2023-03-24T01:25:38.852Z,13.65
2023-03-24T01:26:38.910Z,13.66
2023-03-24T01:27:39.472Z,13.65
2023-03-24T01:28:38.899Z,13.64
2023-03-24T01:29:39.626Z,13.67
2023-03-24T01:30:39.232Z,13.67
2023-03-24T01:31:38.957Z,13.67
2023-03-24T01:32:38.618Z,13.67
2023-03-24T01:33:39.653Z,13.67
2023-03-24T01:34:38.984Z,13.67
2023-03-24T01:35:40.529Z,13.69
2023-03-24T01:36:39.247Z,13.68
2023-03-24T01:37:38.643Z,13.71
2023-03-24T01:38:39.134Z,13.72
2023-03-24T01:39:38.556Z,13.72
2023-03-24T01:40:39.395Z,13.71
2023-03-24T01:41:41.193Z,13.72
2023-03-24T01:42:39.038Z,13.71
2023-03-24T01:43:38.515Z,13.71
2023-03-24T01:44:39.142Z,13.71
2023-03-24T01:45:44.363Z,13.71
2023-03-24T01:46:39.087Z,13.72
2023-03-24T01:47:49.748Z,13.73
2023-03-24T01:48:39.208Z,13.73
2023-03-24T01:49:38.607Z,13.72
2023-03-24T01:50:38.875Z,13.72
2023-03-24T01:51:47.765Z,13.72
2023-03-24T01:52:38.757Z,13.73
2023-03-24T01:53:39.013Z,13.73
2023-03-24T01:54:38.884Z,13.73
2023-03-24T01:55:39.190Z,13.81
2023-03-24T01:56:39.561Z,13.87
2023-03-24T01:57:38.289Z,13.85
2023-03-24T01:58:38.697Z,13.83
2023-03-24T01:59:39.182Z,13.82
2023-03-24T02:00:40.708Z,13.84
2023-03-24T02:01:40.546Z,13.84
2023-03-24T02:02:39.543Z,13.85
2023-03-24T02:03:40.174Z,13.83
2023-03-24T02:04:40.147Z,13.80
2023-03-24T02:05:38.736Z,13.80
2023-03-24T02:06:39.717Z,13.77
2023-03-24T02:07:39.940Z,13.79
2023-03-24T02:08:39.644Z,13.83
2023-03-24T02:09:39.683Z,13.84
2023-03-24T02:10:40.534Z,13.82
2023-03-24T02:11:39.933Z,13.81
2023-03-24T02:12:40.033Z,13.80
2023-03-24T02:13:44.432Z,13.80
2023-03-24T02:14:39.907Z,13.83
2023-03-24T02:15:39.863Z,13.84
2023-03-24T02:16:39.886Z,13.85
2023-03-24T02:17:40.030Z,13.84
2023-03-24T02:18:39.132Z,13.85
2023-03-24T02:19:39.737Z,13.85
2023-03-24T02:20:39.017Z,13.86
2023-03-24T02:21:38.933Z,13.88
2023-03-24T02:22:39.998Z,13.87
2023-03-24T02:23:38.596Z,13.87
2023-03-24T02:24:40.397Z,13.87
2023-03-24T02:25:39.938Z,13.88
2023-03-24T02:26:39.944Z,13.88
2023-03-24T02:27:39.557Z,13.88
2023-03-24T02:28:39.407Z,13.90
2023-03-24T02:29:39.546Z,13.92
2023-03-24T02:30:40.434Z,13.92
2023-03-24T02:31:39.902Z,13.90
2023-03-24T02:32:39.087Z,13.89
2023-03-24T02:33:39.005Z,13.90
2023-03-24T02:34:39.452Z,13.89
2023-03-24T02:35:39.004Z,13.89
2023-03-24T02:36:38.133Z,13.90
2023-03-24T02:37:38.613Z,13.90
2023-03-24T02:38:38.966Z,13.90
2023-03-24T02:39:39.893Z,13.90
2023-03-24T02:40:39.129Z,13.89
2023-03-24T02:41:38.901Z,13.87
2023-03-24T02:42:39.539Z,13.87
2023-03-24T02:44:10.795Z,13.88
2023-03-24T02:46:10.431Z,13.89
2023-03-24T02:46:43.792Z,13.87
2023-03-24T02:47:39.701Z,13.86
2023-03-24T02:48:38.669Z,13.85
2023-03-24T02:49:39.505Z,13.87
2023-03-24T02:50:40.466Z,13.87
2023-03-24T02:51:40.158Z,13.89
2023-03-24T02:52:38.502Z,13.90
2023-03-24T02:53:38.578Z,13.89
2023-03-24T02:54:38.516Z,13.88
2023-03-24T02:55:38.946Z,13.86
2023-03-24T02:56:38.693Z,13.87
2023-03-24T02:57:37.641Z,13.87
2023-03-24T02:58:37.348Z,13.86
2023-03-24T02:59:36.985Z,13.85
2023-03-24T03:00:37.873Z,13.86
2023-03-24T03:02:07.625Z,13.86
2023-03-24T03:02:39.966Z,13.85
2023-03-24T03:03:36.587Z,13.86
2023-03-24T03:04:37.099Z,13.90
2023-03-24T03:05:37.033Z,13.91
2023-03-24T03:06:35.991Z,13.90
2023-03-24T03:07:36.492Z,13.92
2023-03-24T03:08:36.627Z,13.93
2023-03-24T03:09:37.393Z,13.93
2023-03-24T03:10:37.308Z,13.92
2023-03-24T03:11:37.110Z,13.92
2023-03-24T03:12:36.428Z,13.93
2023-03-24T03:13:37.146Z,13.93
2023-03-24T03:14:37.063Z,13.92
2023-03-24T03:15:37.162Z,13.92
2023-03-24T03:16:36.805Z,13.91
2023-03-24T03:17:37.280Z,13.93
2023-03-24T03:18:36.795Z,13.95
2023-03-24T03:19:36.884Z,13.95
2023-03-24T03:20:36.962Z,13.95
2023-03-24T03:21:37.352Z,13.95
2023-03-24T03:22:36.886Z,13.97
2023-03-24T03:23:37.279Z,13.96
2023-03-24T03:24:36.351Z,13.95
2023-03-24T03:25:37.150Z,13.93
2023-03-24T03:26:36.483Z,13.94
2023-03-24T03:27:36.634Z,13.96
2023-03-24T03:28:36.793Z,13.97
2023-03-24T03:29:37.986Z,13.96
2023-03-24T03:30:36.777Z,13.97
2023-03-24T03:31:37.607Z,13.97
2023-03-24T03:32:37.126Z,13.98
2023-03-24T03:33:36.929Z,14.00
2023-03-24T03:34:37.327Z,14.01
2023-03-24T03:35:36.570Z,14.01
2023-03-24T03:36:37.255Z,14.00
2023-03-24T03:37:36.764Z,14.00
2023-03-24T03:38:37.098Z,13.99
2023-03-24T03:39:37.273Z,14.00
2023-03-24T03:40:36.951Z,14.01
2023-03-24T03:41:37.326Z,14.00
2023-03-24T03:42:36.710Z,14.00
2023-03-24T03:43:37.074Z,14.02
2023-03-24T03:44:37.035Z,14.02
2023-03-24T03:46:37.073Z,14.02
2023-03-24T03:47:37.096Z,14.03
2023-03-24T03:48:36.788Z,14.03
2023-03-24T03:49:37.150Z,14.01
2023-03-24T03:50:36.714Z,14.01
2023-03-24T03:51:37.217Z,14.02
2023-03-24T03:52:36.935Z,14.01
2023-03-24T03:53:37.054Z,14.02
2023-03-24T03:54:36.669Z,14.05
2023-03-24T03:55:37.024Z,14.06
2023-03-24T03:56:36.571Z,14.08
2023-03-24T03:57:36.977Z,14.08
2023-03-24T03:58:37.185Z,14.07
2023-03-24T03:59:37.351Z,14.08
2023-03-24T04:00:43.290Z,14.09
2023-03-24T04:01:38.114Z,14.10
2023-03-24T04:02:41.830Z,14.10
2023-03-24T04:03:37.019Z,14.09
2023-03-24T04:04:36.659Z,14.09
2023-03-24T04:05:37.276Z,14.08
2023-03-24T04:06:37.534Z,14.09
2023-03-24T04:07:37.197Z,14.08
2023-03-24T04:08:36.799Z,14.08
2023-03-24T04:09:37.573Z,14.06
2023-03-24T04:10:37.670Z,14.06
2023-03-24T04:11:37.589Z,14.04
2023-03-24T04:12:37.139Z,14.06
2023-03-24T04:13:36.719Z,14.07
2023-03-24T04:14:37.311Z,14.07
2023-03-24T04:15:36.660Z,14.09
2023-03-24T04:16:37.076Z,14.10
2023-03-24T04:17:37.056Z,14.10
2023-03-24T04:18:36.202Z,14.09
2023-03-24T04:19:36.921Z,14.11
2023-03-24T04:20:37.789Z,14.11
2023-03-24T04:21:37.627Z,14.14
2023-03-24T04:22:37.147Z,14.13
2023-03-24T04:23:36.807Z,14.13
2023-03-24T04:24:51.658Z,14.13
2023-03-24T04:25:37.285Z,14.15
2023-03-24T04:26:50.265Z,14.11
2023-03-24T04:27:36.593Z,14.12
2023-03-24T04:28:37.051Z,14.13
2023-03-24T04:29:37.748Z,14.12
2023-03-24T04:30:38.282Z,14.10
2023-03-24T04:31:37.624Z,14.10
2023-03-24T04:32:36.980Z,14.09
2023-03-24T04:33:37.071Z,14.10
2023-03-24T04:34:37.508Z,14.12
2023-03-24T04:35:36.871Z,14.14
2023-03-24T04:36:37.700Z,14.14
2023-03-24T04:37:37.212Z,14.15
2023-03-24T04:38:37.074Z,14.16
2023-03-24T04:39:37.264Z,14.17
2023-03-24T04:40:37.381Z,14.18
2023-03-24T04:41:37.217Z,14.17
2023-03-24T04:42:37.025Z,14.17
2023-03-24T04:43:36.854Z,14.15
2023-03-24T04:44:37.564Z,14.16
2023-03-24T04:45:37.246Z,14.17
2023-03-24T04:46:37.142Z,14.15
2023-03-24T04:47:36.554Z,14.14
2023-03-24T04:48:36.778Z,14.13
2023-03-24T04:49:37.182Z,14.13
2023-03-24T04:50:36.557Z,14.14
2023-03-24T04:51:37.034Z,14.13
2023-03-24T04:52:36.606Z,14.14
2023-03-24T04:53:37.207Z,14.15
2023-03-24T04:54:36.393Z,14.15
2023-03-24T04:55:37.409Z,14.15
2023-03-24T04:56:36.957Z,14.14
2023-03-24T04:57:36.729Z,14.14
2023-03-24T04:58:36.722Z,14.15
2023-03-24T04:59:37.279Z,14.14
2023-03-24T05:01:10.387Z,14.13
2023-03-24T05:01:41.515Z,14.12
2023-03-24T05:03:07.947Z,14.12
2023-03-24T05:03:39.566Z,14.14
2023-03-24T05:04:37.487Z,14.13
2023-03-24T05:05:37.607Z,14.11
2023-03-24T05:06:36.969Z,14.11
2023-03-24T05:07:37.249Z,14.13
2023-03-24T05:08:37.255Z,14.14
2023-03-24T05:09:36.975Z,14.17
2023-03-24T05:10:37.699Z,14.19
2023-03-24T05:11:37.795Z,14.18
2023-03-24T05:12:38.193Z,14.23
2023-03-24T05:13:37.053Z,14.24
2023-03-24T05:14:37.282Z,14.20
2023-03-24T05:15:37.922Z,14.17
2023-03-24T05:16:37.793Z,14.20
2023-03-24T05:17:37.222Z,14.19
2023-03-24T05:18:36.796Z,14.20
2023-03-24T05:19:37.193Z,14.18
2023-03-24T05:20:37.456Z,14.22
2023-03-24T05:21:37.317Z,14.23
2023-03-24T05:22:37.280Z,14.21
2023-03-24T05:23:37.292Z,14.18
2023-03-24T05:24:37.208Z,14.08
2023-03-24T05:25:37.431Z,14.07
2023-03-24T05:26:37.215Z,13.97
2023-03-24T05:27:37.393Z,13.87
2023-03-24T05:28:37.387Z,13.81
2023-03-24T05:29:37.031Z,13.79
2023-03-24T05:30:37.491Z,13.78
2023-03-24T05:31:37.672Z,13.73
2023-03-24T05:32:37.203Z,13.72
2023-03-24T05:33:37.238Z,13.65
2023-03-24T05:34:37.177Z,13.58
2023-03-24T05:35:37.308Z,13.55
2023-03-24T05:36:37.602Z,13.57
2023-03-24T05:37:37.090Z,13.55
2023-03-24T05:38:37.026Z,13.51
2023-03-24T05:39:37.496Z,13.53
2023-03-24T05:40:37.165Z,13.46
2023-03-24T05:41:37.493Z,13.44
2023-03-24T05:42:37.006Z,13.43
2023-03-24T05:43:37.187Z,13.38
2023-03-24T05:44:37.205Z,13.38
2023-03-24T05:45:37.508Z,13.35
2023-03-24T05:46:40.885Z,13.32
2023-03-24T05:47:38.410Z,13.30
2023-03-24T05:48:36.755Z,13.28
2023-03-24T05:49:37.639Z,13.27
2023-03-24T05:50:37.618Z,13.24
2023-03-24T05:51:38.055Z,13.23
2023-03-24T05:52:37.335Z,13.22
2023-03-24T05:53:37.315Z,13.22
2023-03-24T05:54:37.347Z,13.20
2023-03-24T05:55:37.761Z,13.19
2023-03-24T05:56:38.109Z,13.18
2023-03-24T05:57:37.670Z,13.20
2023-03-24T05:58:37.194Z,13.22
2023-03-24T05:59:37.517Z,13.21
2023-03-24T06:00:38.699Z,13.18
2023-03-24T06:01:37.867Z,13.19
2023-03-24T06:02:37.827Z,13.18
2023-03-24T06:03:39.006Z,13.17
2023-03-24T06:04:37.543Z,13.16
2023-03-24T06:05:37.024Z,13.14
2023-03-24T06:06:37.263Z,13.10
2023-03-24T06:07:37.497Z,13.12
2023-03-24T06:08:37.902Z,13.09
2023-03-24T06:09:40.870Z,13.05
2023-03-24T06:10:37.608Z,13.05
2023-03-24T06:11:39.106Z,13.04
2023-03-24T06:12:37.416Z,13.02
2023-03-24T06:13:37.796Z,13.01
2023-03-24T06:14:38.468Z,13.02
2023-03-24T06:15:37.600Z,12.99
2023-03-24T06:16:38.467Z,13
2023-03-24T06:17:37.485Z,13.00
2023-03-24T06:18:37.867Z,13.03
2023-03-24T06:19:37.693Z,13.02
2023-03-24T06:20:38.177Z,13.01
2023-03-24T06:21:37.619Z,12.97
2023-03-24T06:22:37.200Z,12.98
2023-03-24T06:23:42.176Z,12.99
2023-03-24T06:24:37.546Z,12.97
2023-03-24T06:25:38.112Z,12.94
2023-03-24T06:26:37.036Z,12.92
2023-03-24T06:27:37.499Z,12.89
2023-03-24T06:28:37.144Z,12.89
2023-03-24T06:29:42.280Z,12.92
2023-03-24T06:30:38.369Z,12.93
2023-03-24T06:31:37.491Z,12.89
2023-03-24T06:32:37.574Z,12.89
2023-03-24T06:33:38.020Z,12.88
2023-03-24T06:34:37.642Z,12.85
2023-03-24T06:35:38.234Z,12.83
2023-03-24T06:36:37.508Z,12.78
2023-03-24T06:37:37.463Z,12.75
2023-03-24T06:38:37.004Z,12.76
2023-03-24T06:39:37.729Z,12.79
2023-03-24T06:40:37.722Z,12.78
2023-03-24T06:41:37.974Z,12.82
2023-03-24T06:42:38.117Z,12.80
2023-03-24T06:43:37.868Z,12.78
2023-03-24T06:44:37.788Z,12.78
2023-03-24T06:45:37.879Z,12.79
2023-03-24T06:46:37.295Z,12.79
2023-03-24T06:47:37.722Z,12.78
2023-03-24T06:48:38.262Z,12.77
2023-03-24T06:49:38.663Z,12.79
2023-03-24T06:50:41.353Z,12.76
2023-03-24T06:51:39.908Z,12.72
2023-03-24T06:52:38.121Z,12.70
2023-03-24T06:53:37.698Z,12.69
2023-03-24T06:54:41.650Z,12.71
2023-03-24T06:55:38.414Z,12.71
2023-03-24T06:56:37.937Z,12.72
2023-03-24T06:57:37.851Z,12.73
2023-03-24T06:58:37.408Z,12.73
2023-03-24T06:59:37.730Z,12.74
2023-03-24T07:00:39.994Z,12.78
2023-03-24T07:01:38.706Z,12.79
2023-03-24T07:02:38.353Z,12.81
2023-03-24T07:03:38.435Z,12.80
2023-03-24T07:04:38.483Z,12.78
2023-03-24T07:05:37.933Z,12.73
2023-03-24T07:06:50.949Z,12.71
2023-03-24T07:08:53.788Z,12.70
2023-03-24T07:09:43.077Z,12.70
2023-03-24T07:10:37.941Z,12.72
2023-03-24T07:11:43.464Z,12.71
2023-03-24T07:12:38.736Z,12.70
2023-03-24T07:13:38.075Z,12.69
2023-03-24T07:14:37.522Z,12.65
2023-03-24T07:15:38.364Z,12.67
2023-03-24T07:16:37.677Z,12.62
2023-03-24T07:17:39.828Z,12.60
2023-03-24T07:18:38.653Z,12.60
2023-03-24T07:19:39.225Z,12.59
2023-03-24T07:20:40.054Z,12.63
2023-03-24T07:21:38.045Z,12.63
2023-03-24T07:22:38.328Z,12.64
2023-03-24T07:23:37.615Z,12.64
2023-03-24T07:24:37.733Z,12.61
2023-03-24T07:25:38.275Z,12.57
2023-03-24T07:26:37.909Z,12.61
2023-03-24T07:27:41.682Z,12.66
2023-03-24T07:28:38.101Z,12.65
2023-03-24T07:29:38.010Z,12.62
2023-03-24T07:30:54.073Z,12.57
2023-03-24T07:31:38.869Z,12.53
2023-03-24T07:32:38.520Z,12.52
2023-03-24T07:33:39.242Z,12.51
2023-03-24T07:34:38.302Z,12.53
2023-03-24T07:35:39.058Z,12.56
2023-03-24T07:36:38.058Z,12.53
2023-03-24T07:37:37.673Z,12.50
2023-03-24T07:38:39.094Z,12.50
2023-03-24T07:39:37.966Z,12.52
2023-03-24T07:40:38.825Z,12.52
2023-03-24T07:41:38.337Z,12.56
2023-03-24T07:42:37.941Z,12.59
2023-03-24T07:43:38.589Z,12.57
2023-03-24T07:44:38.746Z,12.56
2023-03-24T07:45:38.995Z,12.56
2023-03-24T07:46:37.577Z,12.60
2023-03-24T07:47:37.930Z,12.59
2023-03-24T07:48:39.469Z,12.61
2023-03-24T07:49:38.761Z,12.58
2023-03-24T07:50:39.805Z,12.55
2023-03-24T07:51:40.599Z,12.53
2023-03-24T07:52:38.626Z,12.50
2023-03-24T07:53:38.785Z,12.51
2023-03-24T07:54:39.287Z,12.50
2023-03-24T07:56:38.968Z,12.53
2023-03-24T07:57:38.338Z,12.52
2023-03-24T07:58:38.012Z,12.50
2023-03-24T07:59:39.486Z,12.52
2023-03-24T08:00:40.597Z,12.50
2023-03-24T08:01:38.102Z,12.52
2023-03-24T08:02:38.707Z,12.51
2023-03-24T08:03:39.052Z,12.50
2023-03-24T08:04:41.294Z,12.50
2023-03-24T08:05:38.740Z,12.49
2023-03-24T08:06:38.831Z,12.51
2023-03-24T08:07:37.775Z,12.48
2023-03-24T08:08:37.849Z,12.47
2023-03-24T08:09:38.117Z,12.45
2023-03-24T08:10:37.150Z,12.46
2023-03-24T08:11:37.805Z,12.48
2023-03-24T08:12:41.073Z,12.46
2023-03-24T08:13:37.638Z,12.51
2023-03-24T08:14:40.845Z,12.49
2023-03-24T08:15:38.786Z,12.5
2023-03-24T08:16:38.759Z,12.48
2023-03-24T08:17:37.887Z,12.5
2023-03-24T08:18:37.766Z,12.5
2023-03-24T08:19:48.305Z,12.48
2023-03-24T08:20:38.268Z,12.46
2023-03-24T08:21:37.716Z,12.47
2023-03-24T08:22:37.468Z,12.47
2023-03-24T08:23:37.376Z,12.47
2023-03-24T08:24:37.751Z,12.5
2023-03-24T08:25:38.409Z,12.53
2023-03-24T08:26:37.856Z,12.57
2023-03-24T08:27:39.310Z,12.58
2023-03-24T08:28:37.708Z,12.61
2023-03-24T08:29:38.090Z,12.59
2023-03-24T08:30:41.007Z,12.60
2023-03-24T08:31:41.203Z,12.61
2023-03-24T08:32:41.262Z,12.59
2023-03-24T08:33:40.076Z,12.59
2023-03-24T08:34:40.913Z,12.60
2023-03-24T08:35:42.534Z,12.62
2023-03-24T08:36:42.171Z,12.64
2023-03-24T08:37:40.940Z,12.66
2023-03-24T08:38:42.683Z,12.71
2023-03-24T08:39:41.876Z,12.70
2023-03-24T08:40:40.856Z,12.69
2023-03-24T08:41:41.748Z,12.70
2023-03-24T08:42:41.754Z,12.72
2023-03-24T08:44:16.819Z,12.75
2023-03-24T08:49:34.199Z,12.79
2023-03-24T08:49:43.796Z,12.79
2023-03-24T08:49:46.609Z,12.79
2023-03-24T08:50:54.197Z,12.90
2023-03-24T08:50:56.728Z,12.90
2023-03-24T08:51:40.562Z,12.93
2023-03-24T08:52:39.943Z,12.97
2023-03-24T08:53:40.168Z,12.96
2023-03-24T08:54:45.661Z,12.96
2023-03-24T08:55:40.857Z,13.00
2023-03-24T08:56:39.937Z,13.03
2023-03-24T08:57:39.252Z,13.06
2023-03-24T08:58:40.198Z,13.13
2023-03-24T08:59:39.468Z,13.16
2023-03-24T09:00:46.392Z,13.14
2023-03-24T09:01:39.655Z,13.21
2023-03-24T09:02:40.377Z,13.25
2023-03-24T09:03:42.383Z,13.26
2023-03-24T09:04:42.867Z,13.26
2023-03-24T09:05:56.565Z,13.28
2023-03-24T09:06:39.888Z,13.31
2023-03-24T09:07:40.272Z,13.47
2023-03-24T09:08:39.752Z,13.44
2023-03-24T09:09:40.355Z,13.38
2023-03-24T09:10:47.590Z,13.35
2023-03-24T09:11:39.202Z,13.36
2023-03-24T09:12:39.724Z,13.37
2023-03-24T09:13:40.071Z,13.39
2023-03-24T09:14:54.880Z,13.41
2023-03-24T09:15:46.599Z,13.46
2023-03-24T09:16:41.271Z,13.50
2023-03-24T09:17:40.457Z,13.50
2023-03-24T09:18:39.733Z,13.47
2023-03-24T09:19:40.230Z,13.48
2023-03-24T09:20:39.874Z,13.52
2023-03-24T09:21:43.045Z,13.63
2023-03-24T09:22:44.022Z,13.68
2023-03-24T09:23:40.728Z,13.66
2023-03-24T09:24:40.616Z,13.65
2023-03-24T09:25:40.273Z,13.60
2023-03-24T09:26:39.889Z,13.61
2023-03-24T09:27:40.746Z,13.65
2023-03-24T09:28:41.443Z,13.66
2023-03-24T09:29:40.116Z,13.65
2023-03-24T09:30:39.998Z,13.60
2023-03-24T09:31:39.082Z,13.57
2023-03-24T09:32:44.830Z,13.59
2023-03-24T09:33:41.687Z,13.60
2023-03-24T09:34:41.002Z,13.68
2023-03-24T09:35:39.920Z,13.70
2023-03-24T09:37:00.119Z,13.75
2023-03-24T09:37:38.436Z,13.77
2023-03-24T09:38:40.258Z,13.78
2023-03-24T09:39:39.843Z,13.80
2023-03-24T09:40:41.423Z,13.84
2023-03-24T09:41:40.077Z,13.88
2023-03-24T09:42:40.470Z,13.96
2023-03-24T09:43:39.682Z,13.94
2023-03-24T09:44:40.767Z,13.93
2023-03-24T09:45:41.066Z,13.92
2023-03-24T09:46:39.964Z,13.92
2023-03-24T09:47:40.427Z,13.99
2023-03-24T09:48:41.197Z,13.98
2023-03-24T09:49:40.880Z,13.98
2023-03-24T09:50:41.372Z,14.07
2023-03-24T09:51:40.250Z,14.14
2023-03-24T09:52:40.091Z,14.13
2023-03-24T09:53:39.925Z,14.10
2023-03-24T09:54:40.397Z,14.11
2023-03-24T09:55:40.361Z,14.15
2023-03-24T09:56:54.149Z,14.11
2023-03-24T09:57:39.914Z,14.07
2023-03-24T09:58:41.005Z,14.15
2023-03-24T09:59:39.441Z,14.18
2023-03-24T10:01:13.845Z,14.21
2023-03-24T10:01:45.854Z,14.22
2023-03-24T10:02:42.027Z,14.22
2023-03-24T10:03:39.457Z,14.23
2023-03-24T10:04:40.986Z,14.27
2023-03-24T10:05:40.602Z,14.28
2023-03-24T10:06:40.305Z,14.31
2023-03-24T10:07:40.820Z,14.28
2023-03-24T10:09:00.120Z,14.22
2023-03-24T10:09:40.036Z,14.15
2023-03-24T10:10:40.149Z,14.09
2023-03-24T10:11:40.768Z,14.16
2023-03-24T10:12:41.000Z,14.16
2023-03-24T10:13:40.264Z,14.20
2023-03-24T10:14:39.747Z,14.28
2023-03-24T10:15:53.783Z,14.32
2023-03-24T10:16:40.148Z,14.35
2023-03-24T10:17:40.159Z,14.41
2023-03-24T10:18:40.247Z,14.35
2023-03-24T10:19:40.195Z,14.31
2023-03-24T10:20:40.609Z,14.29
2023-03-24T10:21:40.653Z,14.25
2023-03-24T10:22:40.563Z,14.31
2023-03-24T10:23:40.021Z,14.29
2023-03-24T10:24:40.393Z,14.30
2023-03-24T10:25:40.472Z,14.26
2023-03-24T10:26:41.489Z,14.26
2023-03-24T10:27:41.505Z,14.23
2023-03-24T10:28:40.508Z,14.20
2023-03-24T10:29:41.304Z,14.13
2023-03-24T10:30:43.189Z,14.10
2023-03-24T10:31:40.596Z,14.09
2023-03-24T10:32:41.693Z,14.12
2023-03-24T10:33:40.947Z,14.18
2023-03-24T10:34:40.947Z,14.15
2023-03-24T10:35:41.006Z,14.20
2023-03-24T10:36:41.041Z,14.19
2023-03-24T10:37:40.923Z,14.17
2023-03-24T10:38:41.117Z,14.13
2023-03-24T10:39:59.049Z,14.16
2023-03-24T10:40:39.865Z,14.20
2023-03-24T10:41:40.491Z,14.22
2023-03-24T10:42:41.244Z,14.28
2023-03-24T10:43:40.116Z,14.30
2023-03-24T10:44:40.398Z,14.29
2023-03-24T10:45:40.020Z,14.30
2023-03-24T10:46:39.584Z,14.34
2023-03-24T10:47:40.983Z,14.41
2023-03-24T10:48:39.967Z,14.49
2023-03-24T10:49:40.717Z,14.56
2023-03-24T10:50:40.113Z,14.58
2023-03-24T10:51:39.951Z,14.55
2023-03-24T10:52:40.703Z,14.56
2023-03-24T10:53:40.129Z,14.51
2023-03-24T10:54:39.940Z,14.53
2023-03-24T10:55:41.084Z,14.58
2023-03-24T10:56:40.130Z,14.54
2023-03-24T10:57:39.609Z,14.51
2023-03-24T10:58:41.510Z,14.51
2023-03-24T10:59:40.159Z,14.60
2023-03-24T11:00:42.770Z,14.69
2023-03-24T11:01:41.541Z,14.74
2023-03-24T11:02:40.288Z,14.78
2023-03-24T11:03:41.099Z,14.93
2023-03-24T11:04:39.634Z,15.02
2023-03-24T11:05:40.566Z,15.00
2023-03-24T11:06:39.980Z,14.98
2023-03-24T11:07:41.114Z,14.90
2023-03-24T11:08:40.145Z,14.85
2023-03-24T11:09:40.538Z,14.84
2023-03-24T11:10:41.128Z,14.91
2023-03-24T11:11:39.552Z,14.94
2023-03-24T11:12:40.218Z,14.97
2023-03-24T11:13:39.697Z,14.92
2023-03-24T11:14:40.592Z,14.88
2023-03-24T11:15:40.921Z,14.83
2023-03-24T11:16:41.210Z,14.84
2023-03-24T11:17:40.425Z,14.83
2023-03-24T11:18:39.866Z,14.90
2023-03-24T11:19:45.714Z,14.98
2023-03-24T11:20:41.621Z,14.98
2023-03-24T11:21:46.166Z,14.96
2023-03-24T11:22:40.849Z,14.90
2023-03-24T11:23:45.687Z,14.87
2023-03-24T11:24:41.491Z,14.90
2023-03-24T11:25:41.918Z,14.90
2023-03-24T11:26:41.935Z,14.98
2023-03-24T11:27:40.839Z,15.05
2023-03-24T11:28:40.635Z,15.09
2023-03-24T11:29:40.133Z,15.05
2023-03-24T11:30:39.991Z,15.02
2023-03-24T11:31:40.199Z,15.02
2023-03-24T11:32:40.014Z,15.05
2023-03-24T11:33:52.127Z,15.05
2023-03-24T11:34:40.288Z,15.10
2023-03-24T11:36:39.474Z,15.19
2023-03-24T11:36:51.266Z,15.18
2023-03-24T11:37:40.126Z,15.17
2023-03-24T11:38:39.895Z,15.14
2023-03-24T11:39:42.139Z,15.23
2023-03-24T11:40:40.822Z,15.27
2023-03-24T11:41:40.760Z,15.30
2023-03-24T11:42:42.447Z,15.31
2023-03-24T11:43:41.747Z,15.31
2023-03-24T11:44:40.515Z,15.24
2023-03-24T11:45:41.008Z,15.14
2023-03-24T11:46:40.300Z,15.10
2023-03-24T11:47:41.943Z,15.08
2023-03-24T11:48:41.638Z,15.08
2023-03-24T11:49:42.238Z,15.10
2023-03-24T11:50:42.591Z,15.08
2023-03-24T11:51:55.002Z,15.05
2023-03-24T11:52:40.018Z,15.02
2023-03-24T11:53:39.838Z,15.06
2023-03-24T11:54:44.868Z,15.07
2023-03-24T11:55:45.120Z,15.06
2023-03-24T11:56:40.347Z,15.08
2023-03-24T11:57:39.532Z,15.12
2023-03-24T11:58:40.420Z,15.11
2023-03-24T11:59:41.175Z,15.10
2023-03-24T12:00:41.572Z,15.06
2023-03-24T12:01:41.037Z,15.09
2023-03-24T12:02:39.556Z,15.16
2023-03-24T12:03:40.859Z,15.17
2023-03-24T12:04:40.275Z,15.21
2023-03-24T12:05:45.492Z,15.24
2023-03-24T12:06:39.734Z,15.27
2023-03-24T12:07:40.821Z,15.29
2023-03-24T12:08:40.595Z,15.30
2023-03-24T12:09:40.958Z,15.38
2023-03-24T12:10:39.514Z,15.51
2023-03-24T12:11:48.626Z,15.55
2023-03-24T12:12:40.645Z,15.64
2023-03-24T12:13:48.898Z,15.59
2023-03-24T12:14:41.613Z,15.55
2023-03-24T12:15:45.157Z,15.50
2023-03-24T12:16:40.412Z,15.48
2023-03-24T12:17:41.044Z,15.50
2023-03-24T12:18:40.771Z,15.56
2023-03-24T12:20:13.820Z,15.56
2023-03-24T12:20:47.333Z,15.55
2023-03-24T12:21:41.043Z,15.60
2023-03-24T12:22:39.876Z,15.62
2023-03-24T12:23:40.204Z,15.66
2023-03-24T12:24:40.175Z,15.66
2023-03-24T12:25:41.079Z,15.60
2023-03-24T12:26:39.666Z,15.63
2023-03-24T12:27:40.847Z,15.71
2023-03-24T12:28:40.832Z,15.69
2023-03-24T12:29:41.261Z,15.68
2023-03-24T12:30:40.287Z,15.69
2023-03-24T12:31:40.667Z,15.67
2023-03-24T12:32:41.847Z,15.66
2023-03-24T12:33:41.632Z,15.69
2023-03-24T12:34:41.470Z,15.64
2023-03-24T12:35:40.973Z,15.68
2023-03-24T12:36:41.097Z,15.70
2023-03-24T12:38:00.014Z,15.74
2023-03-24T12:38:39.272Z,15.67
2023-03-24T12:39:40.842Z,15.68
2023-03-24T12:40:41.551Z,15.75
2023-03-24T12:41:40.718Z,15.67
2023-03-24T12:42:40.303Z,15.67
2023-03-24T12:44:03.090Z,15.68
2023-03-24T12:44:40.402Z,15.67
2023-03-24T12:45:40.543Z,15.68
2023-03-24T12:46:49.010Z,15.69
2023-03-24T12:48:03.174Z,15.70
2023-03-24T12:48:41.631Z,15.70
2023-03-24T12:49:40.754Z,15.71
2023-03-24T12:50:40.090Z,15.71
2023-03-24T12:51:40.291Z,15.70
2023-03-24T12:52:40.164Z,15.66
2023-03-24T12:54:39.951Z,15.71
2023-03-24T12:56:40.826Z,15.72
2023-03-24T12:57:41.190Z,15.70
2023-03-24T12:58:40.417Z,15.85
2023-03-24T12:59:40.961Z,15.79
2023-03-24T13:00:41.629Z,15.83
2023-03-24T13:01:41.195Z,15.98